Time;durP1;ratioP1;P1;durP2;ratioP2;P2;SDS_P1;SDS_P2;PMS_P1;PMS_P2;Temp;Humidity;BMP_temperature;BMP_pressure;BME280_temperature;BME280_humidity;BME280_pressure;Samples;Min_cycle;Max_cycle;Signal;HPM_P1;HPM_P2
2022/05/24 00:02:19;;;;;;;2.63;2.43;;;23.70;32.60;;;;;;5093804;28;20430;-34
2022/05/24 00:04:45;;;;;;;3.47;2.20;;;23.60;32.60;;;;;;5093513;28;20750;-34
2022/05/24 00:07:11;;;;;;;3.30;2.40;;;23.60;32.70;;;;;;5093497;28;20417;-34
2022/05/24 00:09:36;;;;;;;3.73;2.20;;;23.70;32.80;;;;;;5093885;28;20422;-34
2022/05/24 00:12:02;;;;;;;3.63;2.23;;;23.60;32.80;;;;;;5093699;28;20433;-34
2022/05/24 00:17:12;;;;;;;3.77;2.00;;;23.70;32.80;;;;;;5093302;28;20401;-34
2022/05/24 00:19:38;;;;;;;2.93;2.10;;;23.70;33.10;;;;;;5093662;28;20410;-33
2022/05/24 00:22:04;;;;;;;3.00;2.20;;;23.60;33.10;;;;;;5093533;28;20198;-34
2022/05/24 00:24:30;;;;;;;3.47;3.17;;;23.70;33.00;;;;;;5093403;28;20168;-34
2022/05/24 00:26:56;;;;;;;3.00;2.43;;;23.60;33.30;;;;;;5093114;28;20506;-34
2022/05/24 00:29:22;;;;;;;2.80;2.33;;;23.60;33.10;;;;;;5093332;28;20370;-34
2022/05/24 00:31:48;;;;;;;5.00;2.97;;;23.60;33.30;;;;;;5093365;28;20668;-34
2022/05/24 00:34:14;;;;;;;4.20;2.23;;;23.60;33.20;;;;;;5093222;28;20910;-33
2022/05/24 00:36:39;;;;;;;2.40;2.00;;;23.60;33.20;;;;;;5093148;28;20406;-34
2022/05/24 00:39:05;;;;;;;3.57;2.63;;;23.60;33.20;;;;;;5093344;28;20179;-33
2022/05/24 00:41:36;;;;;;;2.70;2.20;;;23.60;33.10;;;;;;5093127;28;20620;-33
2022/05/24 00:44:07;;;;;;;2.80;2.03;;;23.60;33.40;;;;;;5093011;28;20175;-34
2022/05/24 00:46:56;;;;;;;2.60;2.10;;;23.60;33.50;;;;;;5093178;28;20449;-33
2022/05/24 00:49:27;;;;;;;5.03;2.90;;;23.50;33.40;;;;;;5093310;28;20406;-34
2022/05/24 00:51:58;;;;;;;4.97;2.07;;;23.50;33.50;;;;;;5093202;28;20501;-34
2022/05/24 00:54:23;;;;;;;2.67;2.30;;;23.40;33.70;;;;;;5092916;28;20410;-33
2022/05/24 00:56:58;;;;;;;3.53;2.53;;;23.40;33.70;;;;;;5092553;28;20414;-33
2022/05/24 00:59:37;;;;;;;4.30;2.50;;;23.40;33.80;;;;;;5092950;28;20198;-33
2022/05/24 01:02:03;;;;;;;2.90;2.50;;;23.40;33.80;;;;;;5092560;28;20940;-33
2022/05/24 01:04:29;;;;;;;3.50;2.63;;;23.30;33.80;;;;;;5092662;28;20405;-34
2022/05/24 01:06:54;;;;;;;2.50;2.30;;;23.30;34.00;;;;;;5092371;28;20200;-33
2022/05/24 01:09:41;;;;;;;3.10;2.37;;;23.30;34.00;;;;;;5092545;28;20416;-33
2022/05/24 01:12:12;;;;;;;3.70;3.03;;;23.30;34.10;;;;;;5092648;28;20192;-34
2022/05/24 01:14:38;;;;;;;3.87;2.87;;;23.30;34.80;;;;;;5092688;28;20426;-33
2022/05/24 01:17:04;;;;;;;4.00;2.57;;;23.30;34.30;;;;;;5091798;28;20433;-34
2022/05/24 01:19:35;;;;;;;3.30;2.80;;;23.30;34.20;;;;;;5092452;28;20171;-33
2022/05/24 01:22:27;;;;;;;4.40;2.70;;;23.30;34.40;;;;;;5092290;28;20441;-34
2022/05/24 01:25:25;;;;;;;4.67;2.30;;;23.30;34.30;;;;;;5092316;28;20784;-34
2022/05/24 01:27:50;;;;;;;3.33;2.87;;;23.30;34.40;;;;;;5090515;28;20425;-33
2022/05/24 01:30:16;;;;;;;3.30;2.30;;;23.20;34.30;;;;;;5092431;28;20406;-34
2022/05/24 01:38:17;;;;;;;6.47;2.67;;;23.30;34.40;;;;;;5092236;28;20401;-33
2022/05/24 01:40:43;;;;;;;2.50;2.20;;;23.30;34.50;;;;;;5092437;28;20483;-34
2022/05/24 01:43:10;;;;;;;7.73;1.93;;;23.30;34.70;;;;;;5092254;28;20414;-33
2022/05/24 01:45:42;;;;;;;4.37;3.03;;;23.30;34.70;;;;;;5092205;28;20445;-34
2022/05/24 01:48:14;;;;;;;2.47;2.27;;;23.20;34.60;;;;;;5092031;28;20406;-34
2022/05/24 01:50:43;;;;;;;3.80;2.73;;;23.30;34.70;;;;;;5092070;28;20778;-34
2022/05/24 01:53:16;;;;;;;3.63;2.30;;;23.30;34.60;;;;;;5091987;28;20869;-34
2022/05/24 01:55:51;;;;;;;2.53;2.03;;;23.30;34.60;;;;;;5092044;28;20463;-34
2022/05/24 01:58:20;;;;;;;2.93;2.40;;;23.30;34.60;;;;;;5091970;28;20412;-34
2022/05/24 02:00:52;;;;;;;3.00;2.20;;;23.30;34.70;;;;;;5091882;28;20441;-34
2022/05/24 02:03:18;;;;;;;2.50;2.07;;;23.30;34.70;;;;;;5091848;28;20402;-34
2022/05/24 02:05:44;;;;;;;3.47;2.40;;;23.30;34.70;;;;;;5092093;28;20452;-33
2022/05/24 02:08:11;;;;;;;4.30;2.43;;;23.30;34.90;;;;;;5091923;28;20179;-30
2022/05/24 02:10:48;;;;;;;3.70;2.80;;;23.30;34.80;;;;;;5091794;28;20191;-32
2022/05/24 02:13:21;;;;;;;3.13;2.40;;;23.30;34.90;;;;;;5091838;28;20920;-32
2022/05/24 02:15:49;;;;;;;4.87;2.70;;;23.30;35.00;;;;;;5091800;28;20788;-31
2022/05/24 02:18:18;;;;;;;3.23;2.93;;;23.30;35.00;;;;;;5091520;28;20410;-31
2022/05/24 02:20:45;;;;;;;3.43;2.73;;;23.30;35.00;;;;;;5091716;28;20520;-31
2022/05/24 02:23:15;;;;;;;3.97;2.97;;;23.30;35.00;;;;;;5091738;28;20413;-32
2022/05/24 02:25:53;;;;;;;3.20;2.33;;;23.30;35.10;;;;;;5091689;28;20445;-31
2022/05/24 02:28:24;;;;;;;3.30;2.60;;;23.40;35.20;;;;;;5093217;28;20929;-32
2022/05/24 02:30:53;;;;;;;3.47;2.67;;;23.30;35.20;;;;;;5095543;28;20434;-32
2022/05/24 02:33:20;;;;;;;2.57;1.80;;;23.30;35.20;;;;;;5095523;28;20436;-31
2022/05/24 02:35:47;;;;;;;3.97;2.67;;;23.30;35.50;;;;;;5095511;28;20455;-32
2022/05/24 02:38:13;;;;;;;4.60;3.17;;;23.30;35.40;;;;;;5095220;28;20409;-31
2022/05/24 02:43:24;;;;;;;6.10;3.23;;;23.30;35.60;;;;;;5095653;28;20455;-32
2022/05/24 02:45:49;;;;;;;5.27;3.07;;;23.30;35.70;;;;;;5095234;28;20449;-32
2022/05/24 02:48:15;;;;;;;3.63;2.70;;;23.30;35.70;;;;;;5095028;28;20412;-31
2022/05/24 02:50:41;;;;;;;6.33;3.33;;;23.30;35.70;;;;;;5095082;28;20192;-31
2022/05/24 02:53:07;;;;;;;4.33;2.67;;;23.30;35.90;;;;;;5095146;28;20194;-32
2022/05/24 02:55:32;;;;;;;2.57;2.03;;;23.30;35.80;;;;;;5094920;28;20405;-30
2022/05/24 02:57:58;;;;;;;4.33;2.20;;;23.30;35.90;;;;;;5094881;28;20547;-33
2022/05/24 03:00:25;;;;;;;2.37;2.10;;;23.30;35.90;;;;;;5094906;28;20255;-33
2022/05/24 03:02:53;;;;;;;2.77;2.17;;;23.30;35.90;;;;;;5094901;28;20406;-32
2022/05/24 03:05:19;;;;;;;2.50;2.03;;;23.20;35.90;;;;;;5094788;28;20863;-33
2022/05/24 03:10:31;;;;;;;5.83;3.27;;;23.30;36.50;;;;;;5095058;28;20444;-33
2022/05/24 03:15:43;;;;;;;3.90;2.40;;;23.30;36.00;;;;;;5095002;28;20409;-32
2022/05/24 03:18:13;;;;;;;3.00;2.70;;;23.30;36.10;;;;;;5094413;28;20430;-32
2022/05/24 03:20:40;;;;;;;2.77;2.33;;;23.30;36.20;;;;;;5094556;28;20436;-31
2022/05/24 03:23:07;;;;;;;2.33;1.87;;;23.30;36.30;;;;;;5094611;28;20417;-31
2022/05/24 03:25:33;;;;;;;3.50;1.90;;;23.30;36.30;;;;;;5094507;28;20482;-33
2022/05/24 03:28:05;;;;;;;3.27;2.77;;;23.20;36.50;;;;;;5094307;28;20398;-31
2022/05/24 03:30:32;;;;;;;4.80;2.77;;;23.20;36.60;;;;;;5094253;28;20970;-31
2022/05/24 03:32:58;;;;;;;4.90;2.60;;;23.30;36.70;;;;;;5094279;28;20410;-30
2022/05/24 03:35:24;;;;;;;4.00;2.60;;;23.30;36.70;;;;;;5094531;28;20470;-31
2022/05/24 03:37:50;;;;;;;6.37;2.60;;;23.30;37.30;;;;;;5094176;28;20226;-32
2022/05/24 03:40:16;;;;;;;3.43;2.23;;;23.20;37.00;;;;;;5093546;28;20176;-33
2022/05/24 03:42:42;;;;;;;2.43;1.83;;;23.20;37.70;;;;;;5094092;28;20398;-32
2022/05/24 03:45:09;;;;;;;3.50;2.30;;;23.20;37.90;;;;;;5094019;28;20441;-33
2022/05/24 03:47:38;;;;;;;3.00;1.80;;;23.20;38.20;;;;;;5093695;28;20536;-32
2022/05/24 03:50:06;;;;;;;3.20;1.80;;;23.20;38.70;;;;;;5094015;28;20398;-32
2022/05/24 03:52:32;;;;;;;3.57;2.33;;;23.20;39.00;;;;;;5094211;28;20430;-32
2022/05/24 03:54:57;;;;;;;1.70;1.10;;;23.30;39.40;;;;;;5094014;28;20401;-33
2022/05/24 04:00:09;;;;;;;2.17;1.50;;;23.30;39.10;;;;;;5094171;28;20175;-32
2022/05/24 04:02:34;;;;;;;2.27;1.40;;;23.40;40.00;;;;;;5093634;28;20426;-32
2022/05/24 04:05:00;;;;;;;5.00;1.40;;;23.40;40.40;;;;;;5093623;28;20394;-32
2022/05/24 04:07:26;;;;;;;2.83;1.53;;;23.40;39.80;;;;;;5093423;28;20704;-32
2022/05/24 04:09:52;;;;;;;2.10;1.60;;;23.40;40.00;;;;;;5093562;28;20406;-33
2022/05/24 04:12:17;;;;;;;3.37;1.60;;;23.40;40.10;;;;;;5093493;28;20188;-31
2022/05/24 04:14:43;;;;;;;1.80;1.10;;;23.40;40.40;;;;;;5093450;28;20168;-31
2022/05/24 04:17:09;;;;;;;2.53;1.97;;;23.40;40.30;;;;;;5112719;22;20212;-35
2022/05/24 04:19:34;;;;;;;2.23;1.20;;;23.50;40.20;;;;;;5093455;28;20167;-35
2022/05/24 04:22:00;;;;;;;2.53;1.60;;;23.60;40.60;;;;;;5093358;28;20167;-35
2022/05/24 04:24:26;;;;;;;2.00;1.40;;;23.60;40.40;;;;;;5093379;28;20635;-35
2022/05/24 04:26:51;;;;;;;2.43;1.50;;;23.50;41.00;;;;;;5092816;28;20721;-35
2022/05/24 04:29:17;;;;;;;5.97;1.87;;;23.50;40.60;;;;;;5093228;28;20172;-35
2022/05/24 04:31:43;;;;;;;1.70;0.93;;;23.60;40.20;;;;;;5093187;28;20168;-35
2022/05/24 04:34:09;;;;;;;2.20;1.40;;;23.60;40.80;;;;;;5093188;28;20175;-35
2022/05/24 04:36:35;;;;;;;2.60;1.43;;;23.70;40.30;;;;;;5092991;28;20192;-35
2022/05/24 04:39:00;;;;;;;1.70;1.17;;;23.70;40.60;;;;;;5092919;28;20410;-35
2022/05/24 04:44:10;;;;;;;5.40;1.70;;;23.70;40.40;;;;;;5093305;28;20182;-35
2022/05/24 04:49:22;;;;;;;2.50;1.57;;;23.70;40.00;;;;;;5093241;28;20175;-35
2022/05/24 04:51:48;;;;;;;1.90;1.40;;;23.70;40.50;;;;;;5091788;28;20501;-35
2022/05/24 04:54:14;;;;;;;2.07;1.33;;;23.70;40.30;;;;;;5092933;28;20425;-35
2022/05/24 04:56:39;;;;;;;5.10;1.40;;;23.70;40.40;;;;;;5092692;28;20702;-35
2022/05/24 04:59:05;;;;;;;2.30;1.30;;;23.80;40.40;;;;;;5092579;28;20178;-35
2022/05/24 05:01:31;;;;;;;2.80;1.37;;;23.80;40.20;;;;;;5092697;28;20172;-35
2022/05/24 05:03:56;;;;;;;1.63;1.00;;;23.80;40.10;;;;;;5074525;28;20258;-35
2022/05/24 05:06:22;;;;;;;2.07;1.37;;;23.80;40.00;;;;;;5092298;28;20188;-35
2022/05/24 05:08:48;;;;;;;2.00;1.30;;;23.90;40.00;;;;;;5092304;28;20168;-35
2022/05/24 05:11:13;;;;;;;3.07;1.40;;;23.90;39.70;;;;;;5092408;28;20180;-36
2022/05/24 05:13:39;;;;;;;2.77;1.67;;;24.00;40.30;;;;;;5092432;28;20176;-36
2022/05/24 05:16:05;;;;;;;2.40;1.40;;;24.10;40.00;;;;;;5092504;28;20203;-35
2022/05/24 05:18:31;;;;;;;3.43;1.60;;;24.20;39.90;;;;;;5092047;28;20188;-35
2022/05/24 05:20:58;;;;;;;2.20;1.47;;;24.20;39.80;;;;;;5092264;28;20413;-36
2022/05/24 05:23:24;;;;;;;2.13;1.27;;;24.30;39.80;;;;;;5092264;28;20647;-35
2022/05/24 05:25:50;;;;;;;6.20;1.73;;;24.30;39.80;;;;;;5074089;28;20450;-35
2022/05/24 05:28:17;;;;;;;1.90;1.27;;;24.30;39.80;;;;;;5091992;28;20195;-36
2022/05/24 05:33:28;;;;;;;2.10;1.30;;;24.20;39.80;;;;;;5092429;28;20397;-35
2022/05/24 05:35:54;;;;;;;2.53;1.70;;;24.20;39.80;;;;;;5092031;28;20820;-36
2022/05/24 05:38:20;;;;;;;4.70;2.00;;;24.20;39.70;;;;;;5091849;28;20500;-35
2022/05/24 05:40:46;;;;;;;2.00;1.37;;;24.20;39.70;;;;;;5092056;28;20552;-36
2022/05/24 05:43:12;;;;;;;2.47;1.03;;;24.20;39.90;;;;;;5092079;28;20405;-36
2022/05/24 05:45:38;;;;;;;1.87;1.27;;;24.30;39.70;;;;;;5092049;28;20446;-35
2022/05/24 05:48:04;;;;;;;1.77;1.27;;;24.30;40.40;;;;;;5091665;28;20184;-35
2022/05/24 05:50:30;;;;;;;2.10;1.40;;;24.30;40.00;;;;;;5092356;28;20509;-35
2022/05/24 05:52:56;;;;;;;2.57;1.40;;;24.40;39.80;;;;;;5091996;28;20660;-35
2022/05/24 05:55:25;;;;;;;2.30;1.80;;;24.50;40.10;;;;;;5092408;28;20463;-36
2022/05/24 05:57:51;;;;;;;2.03;1.40;;;24.50;39.70;;;;;;5091755;28;20518;-36
2022/05/24 06:00:17;;;;;;;2.60;1.60;;;24.50;39.60;;;;;;5091986;28;20823;-35
2022/05/24 06:02:43;;;;;;;4.83;1.67;;;24.60;39.40;;;;;;5092721;28;20804;-36
2022/05/24 06:05:10;;;;;;;3.00;1.50;;;24.70;39.50;;;;;;5096102;28;20449;-36
2022/05/24 06:07:36;;;;;;;2.33;1.53;;;24.70;39.50;;;;;;5095852;28;20441;-35
2022/05/24 06:10:03;;;;;;;2.80;1.60;;;24.80;39.40;;;;;;5096039;28;20397;-35
2022/05/24 06:12:29;;;;;;;2.30;1.47;;;24.80;39.40;;;;;;5095939;28;20845;-35
2022/05/24 06:14:54;;;;;;;4.63;1.43;;;24.90;39.40;;;;;;5095771;28;20956;-35
2022/05/24 06:17:21;;;;;;;2.20;1.50;;;25.10;39.60;;;;;;5095418;28;20287;-36
2022/05/24 06:19:47;;;;;;;4.27;1.53;;;25.20;39.10;;;;;;5095614;28;20646;-35
2022/05/24 06:22:13;;;;;;;2.70;1.40;;;25.20;39.00;;;;;;5095641;28;20417;-35
2022/05/24 06:24:39;;;;;;;2.47;1.80;;;25.10;38.80;;;;;;5095646;28;20719;-35
2022/05/24 06:27:05;;;;;;;2.53;1.77;;;25.10;39.00;;;;;;5095295;28;20557;-36
2022/05/24 06:29:36;;;;;;;3.00;1.40;;;25.10;38.90;;;;;;5095547;28;20266;-36
2022/05/24 06:32:03;;;;;;;2.63;1.80;;;25.00;38.90;;;;;;5095791;28;20493;-36
2022/05/24 06:34:32;;;;;;;2.23;1.57;;;25.00;39.00;;;;;;5095633;28;20406;-35
2022/05/24 06:36:58;;;;;;;2.40;1.50;;;25.10;39.70;;;;;;5095165;28;20762;-35
2022/05/24 06:39:24;;;;;;;6.33;1.40;;;25.00;39.10;;;;;;5095492;28;20409;-35
2022/05/24 06:41:50;;;;;;;2.80;1.40;;;25.00;39.20;;;;;;5095426;28;20926;-36
2022/05/24 06:44:16;;;;;;;2.10;1.07;;;25.00;39.50;;;;;;5095126;28;20420;-36
2022/05/24 06:46:42;;;;;;;3.27;2.17;;;25.10;39.10;;;;;;5095178;28;20218;-35
2022/05/24 06:49:08;;;;;;;1.83;1.13;;;25.20;39.20;;;;;;5094942;28;20176;-35
2022/05/24 06:51:34;;;;;;;2.63;1.70;;;25.30;39.20;;;;;;5095282;28;20180;-36
2022/05/24 06:54:00;;;;;;;3.67;2.57;;;25.30;39.10;;;;;;5095161;28;20958;-35
2022/05/24 06:56:25;;;;;;;2.00;1.17;;;25.40;39.20;;;;;;5095057;28;20226;-36
2022/05/24 07:02:24;;;;;;;2.10;1.73;;;25.40;39.00;;;;;;5094677;28;20168;-36
2022/05/24 07:04:21;;;;;;;3.70;1.90;;;25.40;39.10;;;;;;5094919;28;20456;-36
2022/05/24 07:06:46;;;;;;;5.50;1.50;;;25.40;39.30;;;;;;5094494;28;20457;-35
2022/05/24 07:09:12;;;;;;;2.53;1.60;;;25.40;39.20;;;;;;5094623;28;20214;-35
2022/05/24 07:11:37;;;;;;;2.77;1.80;;;25.40;39.30;;;;;;5094966;28;20171;-36
2022/05/24 07:14:03;;;;;;;2.10;1.50;;;25.40;39.50;;;;;;5094073;28;20712;-36
2022/05/24 07:16:29;;;;;;;2.87;1.73;;;25.50;40.00;;;;;;5094386;28;20215;-36
2022/05/24 07:18:54;;;;;;;3.57;1.40;;;25.50;39.50;;;;;;5094431;28;20238;-36
2022/05/24 07:21:20;;;;;;;4.17;2.23;;;25.50;39.40;;;;;;5094724;28;20206;-36
2022/05/24 07:23:46;;;;;;;2.30;1.53;;;25.50;39.30;;;;;;5094532;28;20540;-36
2022/05/24 07:26:17;;;;;;;4.93;1.90;;;25.60;39.40;;;;;;5094362;28;20417;-36
2022/05/24 07:28:42;;;;;;;2.10;1.70;;;25.60;39.20;;;;;;5094352;28;20172;-35
2022/05/24 07:31:09;;;;;;;2.67;1.60;;;25.70;39.50;;;;;;5094535;28;20413;-35
2022/05/24 07:33:36;;;;;;;2.67;2.07;;;25.80;39.30;;;;;;5094353;28;20513;-36
2022/05/24 07:36:03;;;;;;;4.10;1.97;;;25.90;39.30;;;;;;5094195;28;20909;-36
2022/05/24 07:38:29;;;;;;;1.97;1.47;;;25.90;38.90;;;;;;5093921;28;20620;-36
2022/05/24 07:46:23;;;;;;;4.63;2.00;;;26.10;39.20;;;;;;5094077;28;20967;-36
2022/05/24 07:48:49;;;;;;;2.50;2.10;;;26.20;39.00;;;;;;5093748;28;20410;-36
2022/05/24 07:51:15;;;;;;;3.27;2.60;;;26.20;38.90;;;;;;5093989;28;20172;-36
2022/05/24 07:53:41;;;;;;;5.37;2.23;;;26.10;37.90;;;;;;5094093;28;20176;-36
2022/05/24 07:56:07;;;;;;;2.20;2.00;;;26.10;38.90;;;;;;5093796;28;20585;-36
2022/05/24 07:58:32;;;;;;;3.33;2.17;;;26.20;39.00;;;;;;5093725;28;20410;-36
2022/05/24 08:00:59;;;;;;;2.33;1.73;;;26.30;38.90;;;;;;5093823;28;20167;-36
2022/05/24 08:03:26;;;;;;;2.40;1.67;;;26.40;39.00;;;;;;5093657;28;20230;-36
2022/05/24 08:05:52;;;;;;;2.33;1.87;;;26.40;38.00;;;;;;5093674;28;20533;-36
2022/05/24 08:08:18;;;;;;;2.80;2.13;;;26.30;38.20;;;;;;5093402;28;20457;-36
2022/05/24 08:10:44;;;;;;;5.87;2.27;;;26.30;38.30;;;;;;5093780;28;20229;-36
2022/05/24 08:13:13;;;;;;;2.80;1.87;;;26.20;38.20;;;;;;5093629;28;20159;-36
2022/05/24 08:15:39;;;;;;;2.73;1.90;;;26.20;38.10;;;;;;5093496;28;20406;-36
2022/05/24 08:18:05;;;;;;;2.20;1.60;;;26.20;38.30;;;;;;5093096;28;20488;-36
2022/05/24 08:20:32;;;;;;;2.27;1.40;;;26.20;38.20;;;;;;5093371;28;20474;-36
2022/05/24 08:22:58;;;;;;;2.97;2.00;;;26.20;38.60;;;;;;5093416;28;20402;-36
2022/05/24 08:25:25;;;;;;;2.13;1.50;;;26.20;38.40;;;;;;5093269;28;20448;-36
2022/05/24 08:27:51;;;;;;;2.40;1.80;;;26.20;38.20;;;;;;5093028;28;20422;-36
2022/05/24 08:30:18;;;;;;;3.07;1.30;;;26.20;38.10;;;;;;5093218;28;20409;-36
2022/05/24 08:32:46;;;;;;;3.07;1.50;;;26.20;38.10;;;;;;5093065;28;20412;-36
2022/05/24 08:35:15;;;;;;;3.20;2.27;;;26.10;37.80;;;;;;5093232;28;20406;-36
2022/05/24 08:37:41;;;;;;;2.40;1.90;;;26.10;38.10;;;;;;5092888;28;20451;-36
2022/05/24 08:40:09;;;;;;;2.37;1.70;;;26.00;38.20;;;;;;5093189;28;21049;-36
2022/05/24 08:43:09;;;;;;;4.63;3.83;;;26.10;38.40;;;;;;5093029;28;20403;-36
2022/05/24 08:48:41;;;;;;;2.57;1.97;;;26.10;38.00;;;;;;5093005;28;20429;-36
2022/05/24 08:51:13;;;;;;;4.00;2.50;;;26.00;38.10;;;;;;5092928;28;20401;-36
2022/05/24 08:53:45;;;;;;;2.40;1.87;;;26.00;38.10;;;;;;5092768;28;20406;-36
2022/05/24 08:56:17;;;;;;;2.40;1.87;;;26.00;38.10;;;;;;5092931;28;20455;-36
2022/05/24 08:58:50;;;;;;;3.20;2.10;;;26.10;38.60;;;;;;5092497;28;20506;-36
2022/05/24 09:01:32;;;;;;;2.30;1.97;;;26.30;38.40;;;;;;5092749;28;20413;-36
2022/05/24 09:03:59;;;;;;;2.40;2.10;;;26.50;38.40;;;;;;5092570;28;20402;-36
2022/05/24 09:06:28;;;;;;;3.90;2.10;;;26.70;38.70;;;;;;5092594;28;20529;-36
2022/05/24 09:09:31;;;;;;;2.90;2.03;;;26.90;38.10;;;;;;5092480;28;20402;-36
2022/05/24 09:12:25;;;;;;;5.60;1.80;;;27.00;38.10;;;;;;5055555;28;20406;-36
2022/05/24 09:14:56;;;;;;;9.90;3.83;;;27.10;37.50;;;;;;5092413;28;20765;-36
2022/05/24 09:18:10;;;;;;;2.97;2.37;;;27.10;37.90;;;;;;5092191;28;20437;-35
2022/05/24 09:20:42;;;;;;;4.30;1.97;;;27.20;37.60;;;;;;5002524;28;20446;-36
2022/05/24 09:23:29;;;;;;;3.80;2.20;;;27.10;37.20;;;;;;5092592;28;20394;-36
2022/05/24 09:26:05;;;;;;;2.90;2.10;;;27.00;37.40;;;;;;5092211;28;20554;-36
2022/05/24 09:28:47;;;;;;;2.70;2.13;;;27.00;37.60;;;;;;5092046;28;20436;-36
2022/05/24 09:31:35;;;;;;;2.33;2.13;;;27.00;37.60;;;;;;5092549;28;20827;-36
2022/05/24 09:34:05;;;;;;;2.57;2.00;;;26.90;36.30;;;;;;5092305;28;20425;-36
2022/05/24 09:36:33;;;;;;;2.70;1.97;;;26.90;36.80;;;;;;5092143;28;20457;-36
2022/05/24 09:39:00;;;;;;;3.90;1.70;;;26.90;36.60;;;;;;5091824;28;20832;-36
2022/05/24 09:41:26;;;;;;;2.83;2.30;;;26.80;36.20;;;;;;5091981;28;20406;-36
2022/05/24 09:44:02;;;;;;;6.27;1.93;;;26.70;36.10;;;;;;5092167;28;20410;-36
2022/05/24 09:46:30;;;;;;;3.67;2.40;;;26.60;36.40;;;;;;5091997;28;20469;-35
2022/05/24 09:49:14;;;;;;;2.87;2.07;;;26.60;36.30;;;;;;5091951;28;20410;-35
2022/05/24 09:51:42;;;;;;;3.20;1.63;;;26.50;36.30;;;;;;5092005;28;20436;-36
2022/05/24 09:54:24;;;;;;;3.60;1.97;;;26.40;36.10;;;;;;5092042;28;20398;-35
2022/05/24 09:57:11;;;;;;;2.63;1.80;;;26.30;36.40;;;;;;5091930;28;20426;-35
2022/05/24 09:59:56;;;;;;;2.83;2.20;;;26.30;36.40;;;;;;5091932;28;20455;-35
2022/05/24 10:02:28;;;;;;;3.90;1.87;;;26.40;36.60;;;;;;5091901;28;20480;-35
2022/05/24 10:04:54;;;;;;;6.50;1.90;;;26.70;36.90;;;;;;5092197;28;20755;-35
2022/05/24 10:07:27;;;;;;;2.83;1.87;;;27.00;37.20;;;;;;5091728;28;21026;-36
2022/05/24 10:10:08;;;;;;;5.43;1.87;;;27.30;37.10;;;;;;5091941;28;20789;-36
2022/05/24 10:13:11;;;;;;;2.70;2.00;;;27.60;36.60;;;;;;5091815;28;20394;-36
2022/05/24 10:15:44;;;;;;;3.17;1.40;;;27.90;36.50;;;;;;5091910;28;20433;-36
2022/05/24 10:18:29;;;;;;;3.87;2.30;;;28.10;36.40;;;;;;5091523;28;20495;-36
2022/05/24 10:21:02;;;;;;;3.17;2.77;;;28.30;36.20;;;;;;5091716;28;20437;-36
2022/05/24 10:24:06;;;;;;;2.10;1.70;;;28.40;35.70;;;;;;5092298;28;20965;-36
2022/05/24 10:26:42;;;;;;;2.60;1.50;;;28.50;35.70;;;;;;5089015;28;20506;-36
2022/05/24 10:29:30;;;;;;;2.30;1.70;;;28.50;34.00;;;;;;5091921;28;20471;-36
2022/05/24 10:38:54;;;;;;;3.30;2.40;;;28.40;34.50;;;;;;5071548;28;20432;-36
2022/05/24 10:41:41;;;;;;;3.00;1.53;;;28.50;33.80;;;;;;5091655;28;20405;-36
2022/05/24 10:44:17;;;;;;;6.03;2.67;;;28.50;34.90;;;;;;5091588;28;20944;-36
2022/05/24 10:46:46;;;;;;;4.50;3.43;;;28.60;34.50;;;;;;5091497;28;20481;-36
2022/05/24 10:49:28;;;;;;;2.00;1.60;;;28.50;34.00;;;;;;5091529;28;20398;-36
2022/05/24 10:52:20;;;;;;;3.23;2.10;;;28.60;33.90;;;;;;5095214;28;20402;-35
2022/05/24 10:55:09;;;;;;;2.07;1.63;;;28.50;33.50;;;;;;5095418;28;20409;-36
2022/05/24 10:57:41;;;;;;;2.17;1.50;;;28.30;33.20;;;;;;5094650;28;20949;-35
2022/05/24 11:00:15;;;;;;;2.30;1.50;;;28.20;33.40;;;;;;5095088;28;20394;-35
2022/05/24 11:03:09;;;;;;;2.50;1.13;;;28.10;33.40;;;;;;5094955;28;20455;-36
2022/05/24 11:05:46;;;;;;;1.80;1.20;;;28.00;33.00;;;;;;5095096;28;20528;-36
2022/05/24 11:08:32;;;;;;;2.50;1.63;;;28.00;32.20;;;;;;5094698;28;20484;-36
2022/05/24 11:11:11;;;;;;;2.40;1.23;;;28.00;32.50;;;;;;5094701;28;20408;-36
2022/05/24 11:13:51;;;;;;;2.67;1.33;;;28.10;32.10;;;;;;5094956;28;20493;-36
2022/05/24 11:16:38;;;;;;;3.20;1.33;;;28.10;31.60;;;;;;5094633;28;20401;-36
2022/05/24 11:19:09;;;;;;;1.60;0.90;;;28.10;31.10;;;;;;5094523;28;20410;-36
2022/05/24 11:21:42;;;;;;;1.97;1.23;;;28.00;31.60;;;;;;5094591;28;20886;-36
2022/05/24 11:24:28;;;;;;;1.70;1.10;;;28.10;31.00;;;;;;5094584;28;20493;-36
2022/05/24 11:26:57;;;;;;;1.70;1.10;;;28.10;30.80;;;;;;5094075;28;21067;-36
2022/05/24 11:29:30;;;;;;;2.40;1.43;;;28.20;30.60;;;;;;5094515;28;20409;-36
2022/05/24 11:32:06;;;;;;;2.70;1.30;;;28.40;31.80;;;;;;5094295;28;20920;-36
2022/05/24 11:35:00;;;;;;;1.87;1.10;;;28.60;32.00;;;;;;5094287;28;20762;-36
2022/05/24 11:37:29;;;;;;;2.07;1.00;;;28.70;31.70;;;;;;5093968;28;21145;-36
2022/05/24 11:39:55;;;;;;;2.77;1.67;;;28.80;30.80;;;;;;5094221;28;20477;-36
2022/05/24 11:42:39;;;;;;;1.60;0.80;;;28.80;29.90;;;;;;5094192;28;20457;-36
2022/05/24 11:45:29;;;;;;;1.83;0.93;;;28.90;29.90;;;;;;5094151;28;20407;-36
2022/05/24 11:48:06;;;;;;;2.10;1.03;;;28.80;29.60;;;;;;5093971;28;20422;-35
2022/05/24 11:50:31;;;;;;;1.90;0.87;;;28.80;29.60;;;;;;5094009;28;20425;-36
2022/05/24 11:53:06;;;;;;;4.63;1.27;;;28.70;29.20;;;;;;5094022;28;20435;-36
2022/05/24 11:55:42;;;;;;;1.60;0.90;;;28.70;29.00;;;;;;5094122;28;20171;-36
2022/05/24 11:58:20;;;;;;;1.77;1.03;;;28.50;28.10;;;;;;5093599;28;20460;-36
2022/05/24 12:01:19;;;;;;;1.70;0.80;;;28.50;28.30;;;;;;5093828;28;20410;-36
2022/05/24 12:09:59;;;;;;;1.80;0.90;;;28.30;28.80;;;;;;5093692;28;20459;-36
2022/05/24 12:12:35;;;;;;;1.63;0.90;;;28.20;27.30;;;;;;5093735;28;20406;-36
2022/05/24 12:15:30;;;;;;;1.93;1.10;;;28.10;27.10;;;;;;5093663;28;20398;-36
2022/05/24 12:17:59;;;;;;;1.50;0.90;;;28.00;28.10;;;;;;5093108;28;20491;-36
2022/05/24 12:20:34;;;;;;;1.70;0.80;;;27.90;26.60;;;;;;5093352;28;20963;-36
2022/05/24 12:23:28;;;;;;;6.00;0.90;;;27.90;26.90;;;;;;5093527;28;20402;-36
2022/05/24 12:25:58;;;;;;;3.73;1.00;;;27.90;27.80;;;;;;5093126;28;20985;-36
2022/05/24 12:28:50;;;;;;;1.90;1.00;;;27.90;27.60;;;;;;5093233;28;20426;-36
2022/05/24 12:31:19;;;;;;;5.07;1.00;;;27.90;27.00;;;;;;5093250;28;20402;-36
2022/05/24 12:34:00;;;;;;;2.93;1.43;;;27.70;26.60;;;;;;5093175;28;20397;-36
2022/05/24 12:36:41;;;;;;;1.50;0.97;;;27.70;27.40;;;;;;5093119;28;20510;-36
2022/05/24 12:39:06;;;;;;;1.70;0.73;;;27.60;27.80;;;;;;5092980;28;20409;-36
2022/05/24 12:41:41;;;;;;;1.90;1.20;;;27.60;27.20;;;;;;5093185;28;20406;-36
2022/05/24 12:44:10;;;;;;;1.97;0.87;;;27.50;28.80;;;;;;5093143;28;20195;-35
2022/05/24 12:46:36;;;;;;;4.30;1.67;;;27.50;28.10;;;;;;5092800;28;20460;-36
2022/05/24 12:49:10;;;;;;;2.87;1.33;;;27.50;28.10;;;;;;5092662;28;20414;-36
2022/05/24 12:51:38;;;;;;;3.27;1.03;;;27.50;28.70;;;;;;5092885;28;20917;-35
2022/05/24 12:54:18;;;;;;;1.60;0.80;;;27.50;28.90;;;;;;5092713;28;20889;-36
2022/05/24 12:56:57;;;;;;;2.13;0.80;;;27.50;28.50;;;;;;5092781;28;20453;-36
2022/05/24 12:59:41;;;;;;;2.93;1.23;;;27.40;28.70;;;;;;5092634;28;20405;-36
2022/05/24 13:02:28;;;;;;;2.53;1.37;;;27.40;28.70;;;;;;5092829;28;20414;-36
2022/05/24 13:05:09;;;;;;;1.93;1.10;;;27.40;28.50;;;;;;5093172;28;20402;-36
2022/05/24 13:07:38;;;;;;;2.43;1.53;;;27.40;29.20;;;;;;5092294;28;20519;-36
2022/05/24 13:10:15;;;;;;;2.17;1.37;;;27.40;29.30;;;;;;5092659;28;20391;-36
2022/05/24 13:12:41;;;;;;;2.63;1.00;;;27.40;29.20;;;;;;5091928;28;20405;-35
2022/05/24 13:15:11;;;;;;;2.40;1.27;;;27.30;28.90;;;;;;5092536;28;20398;-36
2022/05/24 13:17:43;;;;;;;1.77;0.73;;;27.30;28.80;;;;;;5073899;28;20511;-36
2022/05/24 13:20:11;;;;;;;1.60;1.07;;;27.20;29.00;;;;;;5092363;28;20484;-36
2022/05/24 13:22:52;;;;;;;1.73;1.07;;;27.20;29.20;;;;;;5092469;28;20463;-36
2022/05/24 13:25:28;;;;;;;2.33;0.90;;;27.20;28.10;;;;;;5092214;28;20484;-36
2022/05/24 13:28:03;;;;;;;2.33;0.87;;;27.10;28.80;;;;;;5092458;28;20430;-36
2022/05/24 13:33:42;;;;;;;2.00;1.00;;;27.20;29.20;;;;;;5092284;28;20405;-36
2022/05/24 13:36:11;;;;;;;1.40;0.53;;;27.10;28.90;;;;;;5092204;28;20841;-36
2022/05/24 13:38:37;;;;;;;2.27;1.10;;;27.00;29.00;;;;;;5091865;28;20406;-36
2022/05/24 13:41:02;;;;;;;2.13;1.30;;;27.10;29.50;;;;;;5092055;28;20406;-36
2022/05/24 13:43:36;;;;;;;2.97;0.87;;;27.10;28.90;;;;;;5092430;28;20406;-35
2022/05/24 13:46:20;;;;;;;1.60;1.00;;;27.10;28.70;;;;;;5092001;28;20687;-36
2022/05/24 13:48:53;;;;;;;1.90;1.03;;;27.00;29.00;;;;;;5091962;28;20467;-35
2022/05/24 13:51:27;;;;;;;1.80;1.13;;;27.00;28.90;;;;;;5091891;28;20766;-35
2022/05/24 13:53:54;;;;;;;1.40;0.60;;;27.00;29.40;;;;;;5092139;28;20402;-35
2022/05/24 13:56:25;;;;;;;2.00;1.03;;;26.90;29.50;;;;;;5091916;28;20467;-36
2022/05/24 13:59:07;;;;;;;2.10;1.00;;;26.90;29.00;;;;;;5091893;28;20401;-36
2022/05/24 14:01:38;;;;;;;2.17;1.03;;;26.90;28.80;;;;;;5091883;28;20414;-36
2022/05/24 14:04:26;;;;;;;1.70;1.00;;;26.90;28.90;;;;;;5091918;28;20414;-36